createdAt,value
2023-03-30T00:06:26.939Z,1.90
2023-03-30T00:16:29.280Z,2.27
2023-03-30T00:26:31.859Z,1.83
2023-03-30T00:36:37.614Z,1.08
2023-03-30T00:46:39.940Z,1.48
2023-03-30T00:56:42.378Z,2.55
2023-03-30T01:06:49.381Z,1.67
2023-03-30T01:17:13.871Z,1.70
2023-03-30T01:27:50.191Z,1.33
2023-03-30T01:37:55.071Z,1.95
2023-03-30T01:48:31.551Z,1.40
2023-03-30T01:58:40.171Z,1.90
2023-03-30T02:08:46.622Z,2.03
2023-03-30T02:18:49.031Z,1.35
2023-03-30T02:28:52.492Z,2.10
2023-03-30T02:39:16.257Z,1.50
2023-03-30T02:49:42.334Z,2.25
2023-03-30T02:59:59.121Z,1.87
2023-03-30T03:10:01.752Z,2.40
2023-03-30T03:20:05.297Z,1.80
2023-03-30T03:30:08.390Z,1.93
2023-03-30T03:40:12.214Z,1.90
2023-03-30T03:50:14.709Z,1.97
2023-03-30T04:00:17.565Z,1.70
2023-03-30T04:10:21.740Z,1.70
2023-03-30T04:20:26.082Z,2.30
2023-03-30T04:30:30.877Z,1.73
2023-03-30T04:40:34.406Z,1.50
2023-03-30T04:50:36.944Z,1.63
2023-03-30T05:00:39.813Z,1.73
2023-03-30T05:10:42.388Z,2.30
2023-03-30T05:20:44.863Z,2.20
2023-03-30T05:30:47.406Z,2.20
2023-03-30T05:40:54.090Z,3.03
2023-03-30T05:50:57.503Z,2.57
2023-03-30T06:01:01.022Z,3.40
2023-03-30T06:11:05.025Z,3.10
2023-03-30T06:21:08.655Z,2.08
2023-03-30T06:31:12.568Z,2.30
2023-03-30T06:41:15.797Z,1.50
2023-03-30T06:51:19.615Z,1.80
2023-03-30T07:01:22.471Z,1.92
2023-03-30T07:11:25.279Z,1.62
2023-03-30T07:21:27.949Z,1.55
2023-03-30T07:31:30.826Z,1.48
2023-03-30T07:41:33.363Z,1.60
2023-03-30T07:51:36.048Z,1.30
2023-03-30T08:01:39.225Z,1.30
2023-03-30T08:11:42.333Z,1.60
2023-03-30T08:21:44.733Z,1.50
2023-03-30T08:31:48.014Z,1.95
2023-03-30T08:42:06.469Z,2.20
2023-03-30T08:52:19.945Z,1.80
2023-03-30T09:02:36.757Z,2.30
2023-03-30T09:13:00.991Z,1.77
2023-03-30T09:23:04.420Z,1.58
2023-03-30T09:33:39.287Z,2.07
2023-03-30T09:54:00.593Z,1.90
2023-03-30T10:04:13.011Z,2.40
2023-03-30T10:14:38.183Z,2.40
2023-03-30T10:24:50.288Z,1.90
2023-03-30T10:35:00.563Z,2.60
2023-03-30T10:45:07.543Z,2.50
2023-03-30T10:55:18.929Z,2.45
2023-03-30T11:05:29.222Z,1.75
2023-03-30T11:16:05.508Z,2.00
2023-03-30T11:26:12.861Z,1.12
2023-03-30T11:36:36.558Z,1.25
2023-03-30T11:46:53.440Z,1.37
2023-03-30T11:57:17.693Z,1.05
2023-03-30T12:07:23.004Z,1.52
2023-03-30T12:17:42.716Z,1.42
2023-03-30T12:27:59.151Z,1.40
2023-03-30T12:38:06.339Z,1.27
2023-03-30T12:48:47.162Z,1.70
2023-03-30T12:59:05.934Z,1.50
2023-03-30T13:09:08.538Z,1.10
2023-03-30T13:19:32.575Z,1.10
2023-03-30T13:29:35.205Z,1.50
2023-03-30T13:39:50.860Z,1.20
2023-03-30T13:50:06.856Z,1.40
2023-03-30T14:20:56.897Z,1.77
2023-03-30T14:31:11.903Z,2.00
2023-03-30T14:41:24.285Z,1.45
2023-03-30T14:51:41.178Z,1.65
2023-03-30T15:01:44.628Z,1.70
2023-03-30T15:11:53.972Z,1.90
2023-03-30T15:22:03.498Z,1.55
2023-03-30T15:32:08.066Z,1.90
2023-03-30T15:42:10.899Z,1.67
2023-03-30T15:52:20.352Z,1.10
2023-03-30T16:02:36.502Z,1.37
2023-03-30T16:12:44.301Z,1.42
2023-03-30T16:22:47.987Z,1.50
2023-03-30T16:32:50.637Z,1.30
2023-03-30T16:42:53.670Z,1.42
2023-03-30T16:52:56.304Z,1.30
2023-03-30T17:02:58.989Z,1.40
2023-03-30T17:13:02.023Z,1.70
2023-03-30T17:23:05.582Z,1.30
2023-03-30T17:33:13.016Z,1.35
2023-03-30T17:43:16.040Z,1.17
2023-03-30T17:53:20.653Z,1.30
2023-03-30T18:03:29.744Z,1.33
2023-03-30T18:13:32.817Z,1.42
2023-03-30T18:23:36.381Z,1.27
2023-03-30T18:33:39.714Z,1.50
2023-03-30T18:43:42.534Z,1.37
2023-03-30T18:53:44.994Z,1.42
2023-03-30T19:03:47.835Z,1.25
2023-03-30T19:13:50.556Z,1.50
2023-03-30T19:23:53.383Z,1.60
2023-03-30T19:33:56.088Z,1.27
2023-03-30T19:43:58.930Z,1.40
2023-03-30T19:54:01.849Z,1.87
2023-03-30T20:04:05.381Z,1.23
2023-03-30T20:14:09.266Z,1.83
2023-03-30T20:24:12.262Z,1.57
2023-03-30T20:34:15.805Z,1.40
2023-03-30T20:44:18.532Z,1.70
2023-03-30T20:54:21.457Z,1.53
2023-03-30T21:04:24.114Z,1.70
2023-03-30T21:14:26.993Z,1.63
2023-03-30T21:24:29.871Z,1.67
2023-03-30T21:34:32.272Z,1.80
2023-03-30T21:44:35.863Z,1.90
2023-03-30T21:54:38.455Z,2.60
2023-03-30T22:04:44.043Z,1.83
2023-03-30T22:14:46.454Z,2.33
2023-03-30T22:24:48.861Z,2.60
2023-03-30T22:34:51.820Z,2.60
2023-03-30T22:44:54.146Z,2.20
2023-03-30T22:54:56.653Z,2.30
2023-03-30T23:04:59.259Z,2.30
2023-03-30T23:15:01.787Z,2.67
2023-03-30T23:25:05.679Z,2.47
2023-03-30T23:35:08.657Z,2.07
2023-03-30T23:45:11.301Z,2.50
2023-03-30T23:55:13.829Z,2.70
